»·PEaware :: USC243 KBLH-KLAS

USC243 :: KBLH-KLAS

FLIGHT INFORMATION

Flight Status: Arrived
Operator: Unknown
More flights by this operator :: More flights under this callsign
Pilot: Andy P. (22680)
Aircraft: GATES LEARJET LEARJET 35/36
(LJ35)
More flights by this aircraft type
Origin: KBLH Blythe
United States
Destination: KLAS McCarran Intl
United States
More flights between these airports :: More routes between these airports
Route: ROGBE IGM TYSSN5
File this flight plan on PilotEdge
Remarks:
Altitude:
(Current/Filed)
22,000ft
Speed:
(Current/Filed)
465kts
Departed: 18-May-19 01:21 PM
Arrived: 18-May-19 01:58 PM
Distance/Time
Traveled:
149nm/0:37
Distance/Time
To Go:
Arrived

Flight Plot

Page will automatically refresh every two minutes.

Flight plan parsing failed; only flown route is shown


Map Options




Map Legend


Flown Route
Filed Route
Departure Airport
Arrival Airport
Navaid (VOR, NDB)
Fix

Horizontal Profiles

Position Reports

Time Latitude Longitude Heading Altitude Ground
Speed
18-May-19 13:02 33.614840 -114.714608 359 400ft 0kts
18-May-19 13:03 33.614840 -114.714608 359 400ft 0kts
18-May-19 13:04 33.614840 -114.714608 359 400ft 0kts
18-May-19 13:05 33.614840 -114.714608 359 400ft 0kts
18-May-19 13:07 33.614840 -114.714608 359 400ft 0kts
18-May-19 13:08 33.614840 -114.714608 359 400ft 0kts
18-May-19 13:09 33.614840 -114.714608 359 400ft 0kts
18-May-19 13:10 33.614840 -114.714608 359 400ft 0kts
18-May-19 13:11 33.614840 -114.714608 359 400ft 0kts
18-May-19 13:12 33.614840 -114.714608 359 400ft 0kts
18-May-19 13:13 33.614840 -114.714608 359 400ft 0kts
18-May-19 13:14 33.614840 -114.714608 359 400ft 0kts
18-May-19 13:15 33.614840 -114.714608 359 400ft 0kts
18-May-19 13:16 33.615110 -114.713896 83 400ft 10kts
18-May-19 13:17 33.615137 -114.708068 90 400ft 17kts
18-May-19 13:18 33.615548 -114.706405 47 400ft 0kts
18-May-19 13:19 33.615549 -114.706404 47 400ft 0kts
18-May-19 13:20 33.615651 -114.706299 28 400ft 6kts
18-May-19 13:21 33.614771 -114.730368 241 1235ft 162kts
18-May-19 13:22 33.564531 -114.727505 105 4445ft 233kts
18-May-19 13:23 33.619139 -114.709970 348 6334ft 283kts
18-May-19 13:24 33.698827 -114.717225 357 6985ft 267kts
18-May-19 13:24 33.756262 -114.716613 359 7132ft 244kts
18-May-19 13:25 33.837824 -114.718237 0 11280ft 333kts
18-May-19 13:27 33.946672 -114.673797 18 16255ft 387kts
18-May-19 13:27 34.030682 -114.628920 18 19355ft 405kts
18-May-19 13:28 34.135303 -114.570981 17 21897ft 416kts
18-May-19 13:30 34.259389 -114.501730 18 21927ft 432kts
18-May-19 13:30 34.351230 -114.450272 18 21926ft 441kts
18-May-19 13:31 34.463384 -114.387248 18 21926ft 447kts
18-May-19 13:32 34.577061 -114.323185 18 21903ft 450kts
18-May-19 13:33 34.693997 -114.293827 348 21920ft 425kts
18-May-19 13:34 34.811953 -114.308995 349 21924ft 427kts
18-May-19 13:35 34.930684 -114.319564 350 21925ft 428kts
18-May-19 13:36 35.049624 -114.329073 350 21926ft 429kts
18-May-19 13:37 35.168465 -114.338358 350 21773ft 419kts
18-May-19 13:38 35.281874 -114.347204 350 19742ft 391kts
18-May-19 13:39 35.387672 -114.355518 351 17944ft 373kts
18-May-19 13:40 35.488799 -114.363424 351 16229ft 333kts
18-May-19 13:41 35.571749 -114.369965 351 14843ft 290kts
18-May-19 13:42 35.653499 -114.376510 352 13486ft 296kts
18-May-19 13:43 35.735275 -114.383672 348 12109ft 290kts
18-May-19 13:44 35.807562 -114.413995 337 11529ft 256kts
18-May-19 13:45 35.871826 -114.444033 337 11114ft 250kts
18-May-19 13:46 35.938388 -114.475163 337 10662ft 254kts
18-May-19 13:47 35.988547 -114.530668 283 9123ft 262kts
18-May-19 13:48 36.003153 -114.615474 287 7927ft 234kts
18-May-19 13:49 36.019724 -114.689208 285 7307ft 224kts
18-May-19 13:50 36.039175 -114.765663 284 6164ft 231kts
18-May-19 13:51 36.052557 -114.842627 280 5254ft 226kts
18-May-19 13:52 36.065582 -114.912132 281 4889ft 225kts
18-May-19 13:53 36.073514 -114.988862 271 3796ft 201kts
18-May-19 13:54 36.073797 -115.052684 270 3213ft 161kts
18-May-19 13:55 36.073892 -115.100366 268 2567ft 129kts
18-May-19 13:56 36.073606 -115.139263 271 2184ft 53kts
18-May-19 13:57 36.074780 -115.146055 308 2184ft 0kts
18-May-19 13:58 36.076474 -115.146514 3 2184ft 15kts
18-May-19 13:59 36.078419 -115.145100 99 2184ft 18kts
18-May-19 14:00 36.078271 -115.135980 88 2184ft 33kts
18-May-19 14:01 36.079688 -115.126468 0 2184ft 30kts
18-May-19 14:02 36.082951 -115.125690 90 2184ft 0kts

Navigation Log

Ident Type
Flight plan parsing failed, navigation log unavailable